sensor_id;sensor_type;location;lat;lon;timestamp;P1;durP1;ratioP1;P2;durP2;ratioP2
59093;SDS011;44880;52.814;18.270;2023-11-21T00:00:50;23.60;;;12.40;;
59093;SDS011;44880;52.814;18.270;2023-11-21T00:03:38;22.10;;;10.40;;
59093;SDS011;44880;52.814;18.270;2023-11-21T00:06:10;24.70;;;12.10;;
59093;SDS011;44880;52.814;18.270;2023-11-21T00:08:43;25.50;;;12.60;;
59093;SDS011;44880;52.814;18.270;2023-11-21T00:11:14;23.80;;;12.60;;
59093;SDS011;44880;52.814;18.270;2023-11-21T00:13:46;22.40;;;10.80;;
59093;SDS011;44880;52.814;18.270;2023-11-21T00:16:18;22.10;;;11.10;;
59093;SDS011;44880;52.814;18.270;2023-11-21T00:18:50;22.00;;;11.50;;
59093;SDS011;44880;52.814;18.270;2023-11-21T00:21:22;20.30;;;10.80;;
59093;SDS011;44880;52.814;18.270;2023-11-21T00:23:54;20.30;;;12.00;;
59093;SDS011;44880;52.814;18.270;2023-11-21T00:26:26;22.30;;;12.30;;
59093;SDS011;44880;52.814;18.270;2023-11-21T00:29:03;20.90;;;11.20;;
59093;SDS011;44880;52.814;18.270;2023-11-21T00:31:36;22.00;;;11.20;;
59093;SDS011;44880;52.814;18.270;2023-11-21T00:36:38;21.50;;;11.30;;
59093;SDS011;44880;52.814;18.270;2023-11-21T00:41:40;26.30;;;12.70;;
59093;SDS011;44880;52.814;18.270;2023-11-21T00:44:13;23.00;;;12.00;;
59093;SDS011;44880;52.814;18.270;2023-11-21T00:46:44;20.00;;;10.70;;
59093;SDS011;44880;52.814;18.270;2023-11-21T00:49:16;20.20;;;10.70;;
59093;SDS011;44880;52.814;18.270;2023-11-21T00:51:49;18.40;;;9.10;;
59093;SDS011;44880;52.814;18.270;2023-11-21T00:54:20;17.10;;;10.00;;
59093;SDS011;44880;52.814;18.270;2023-11-21T00:56:52;17.70;;;9.40;;
59093;SDS011;44880;52.814;18.270;2023-11-21T01:01:54;19.40;;;9.80;;
59093;SDS011;44880;52.814;18.270;2023-11-21T01:04:28;19.20;;;9.90;;
59093;SDS011;44880;52.814;18.270;2023-11-21T01:07:01;19.80;;;10.10;;
59093;SDS011;44880;52.814;18.270;2023-11-21T01:09:34;21.60;;;10.90;;
59093;SDS011;44880;52.814;18.270;2023-11-21T01:12:06;21.50;;;10.20;;
59093;SDS011;44880;52.814;18.270;2023-11-21T01:14:38;18.70;;;9.80;;
59093;SDS011;44880;52.814;18.270;2023-11-21T01:17:09;19.20;;;10.30;;
59093;SDS011;44880;52.814;18.270;2023-11-21T01:19:41;16.10;;;9.00;;
59093;SDS011;44880;52.814;18.270;2023-11-21T01:22:12;15.60;;;8.50;;
59093;SDS011;44880;52.814;18.270;2023-11-21T01:27:14;15.80;;;7.30;;
59093;SDS011;44880;52.814;18.270;2023-11-21T01:29:46;18.70;;;9.00;;
59093;SDS011;44880;52.814;18.270;2023-11-21T01:32:21;17.00;;;8.60;;
59093;SDS011;44880;52.814;18.270;2023-11-21T01:34:53;15.90;;;8.20;;
59093;SDS011;44880;52.814;18.270;2023-11-21T01:37:25;15.00;;;8.00;;
59093;SDS011;44880;52.814;18.270;2023-11-21T01:39:57;13.80;;;7.60;;
59093;SDS011;44880;52.814;18.270;2023-11-21T01:42:30;14.80;;;8.50;;
59093;SDS011;44880;52.814;18.270;2023-11-21T01:45:03;13.20;;;7.90;;
59093;SDS011;44880;52.814;18.270;2023-11-21T01:47:36;13.30;;;6.70;;
59093;SDS011;44880;52.814;18.270;2023-11-21T01:50:09;13.80;;;6.80;;
59093;SDS011;44880;52.814;18.270;2023-11-21T01:52:42;13.30;;;6.70;;
59093;SDS011;44880;52.814;18.270;2023-11-21T01:55:15;13.70;;;7.50;;
59093;SDS011;44880;52.814;18.270;2023-11-21T01:57:48;12.60;;;6.80;;
59093;SDS011;44880;52.814;18.270;2023-11-21T02:00:20;13.10;;;7.40;;
59093;SDS011;44880;52.814;18.270;2023-11-21T02:02:52;14.30;;;7.30;;
59093;SDS011;44880;52.814;18.270;2023-11-21T02:05:25;13.80;;;7.50;;
59093;SDS011;44880;52.814;18.270;2023-11-21T02:07:57;14.30;;;7.40;;
59093;SDS011;44880;52.814;18.270;2023-11-21T02:10:30;14.30;;;7.60;;
59093;SDS011;44880;52.814;18.270;2023-11-21T02:13:01;14.10;;;7.30;;
59093;SDS011;44880;52.814;18.270;2023-11-21T02:15:34;16.40;;;8.00;;
59093;SDS011;44880;52.814;18.270;2023-11-21T02:18:06;15.50;;;7.50;;
59093;SDS011;44880;52.814;18.270;2023-11-21T02:20:39;14.30;;;6.90;;
59093;SDS011;44880;52.814;18.270;2023-11-21T02:23:11;13.40;;;7.40;;
59093;SDS011;44880;52.814;18.270;2023-11-21T02:25:43;13.40;;;6.90;;
59093;SDS011;44880;52.814;18.270;2023-11-21T02:28:15;14.60;;;7.90;;
59093;SDS011;44880;52.814;18.270;2023-11-21T02:30:54;13.50;;;7.00;;
59093;SDS011;44880;52.814;18.270;2023-11-21T02:33:27;15.50;;;7.90;;
59093;SDS011;44880;52.814;18.270;2023-11-21T02:36:01;16.70;;;8.20;;
59093;SDS011;44880;52.814;18.270;2023-11-21T02:38:33;15.60;;;8.80;;
59093;SDS011;44880;52.814;18.270;2023-11-21T02:41:05;15.80;;;7.50;;
59093;SDS011;44880;52.814;18.270;2023-11-21T02:43:37;14.00;;;7.50;;
59093;SDS011;44880;52.814;18.270;2023-11-21T02:46:09;14.60;;;8.00;;
59093;SDS011;44880;52.814;18.270;2023-11-21T02:48:42;15.30;;;8.10;;
59093;SDS011;44880;52.814;18.270;2023-11-21T02:51:13;14.40;;;7.70;;
59093;SDS011;44880;52.814;18.270;2023-11-21T02:53:45;17.00;;;8.50;;
59093;SDS011;44880;52.814;18.270;2023-11-21T02:56:16;17.80;;;9.40;;
59093;SDS011;44880;52.814;18.270;2023-11-21T02:58:48;16.70;;;9.50;;
59093;SDS011;44880;52.814;18.270;2023-11-21T03:01:20;15.80;;;7.80;;
59093;SDS011;44880;52.814;18.270;2023-11-21T03:03:52;15.60;;;7.70;;
59093;SDS011;44880;52.814;18.270;2023-11-21T03:08:53;15.80;;;8.30;;
59093;SDS011;44880;52.814;18.270;2023-11-21T03:11:25;15.40;;;7.90;;
59093;SDS011;44880;52.814;18.270;2023-11-21T03:13:57;16.60;;;8.80;;
59093;SDS011;44880;52.814;18.270;2023-11-21T03:16:28;20.10;;;10.20;;
59093;SDS011;44880;52.814;18.270;2023-11-21T03:19:01;16.80;;;8.70;;
59093;SDS011;44880;52.814;18.270;2023-11-21T03:21:33;17.00;;;8.80;;
59093;SDS011;44880;52.814;18.270;2023-11-21T03:24:05;15.60;;;8.00;;
59093;SDS011;44880;52.814;18.270;2023-11-21T03:26:37;15.10;;;8.40;;
59093;SDS011;44880;52.814;18.270;2023-11-21T03:29:09;17.60;;;9.00;;
59093;SDS011;44880;52.814;18.270;2023-11-21T03:31:41;16.50;;;8.50;;
59093;SDS011;44880;52.814;18.270;2023-11-21T03:34:16;17.10;;;9.30;;
59093;SDS011;44880;52.814;18.270;2023-11-21T03:36:49;16.10;;;8.30;;
59093;SDS011;44880;52.814;18.270;2023-11-21T03:39:21;17.70;;;8.80;;
59093;SDS011;44880;52.814;18.270;2023-11-21T03:41:53;17.20;;;8.40;;
59093;SDS011;44880;52.814;18.270;2023-11-21T03:44:25;16.60;;;8.90;;
59093;SDS011;44880;52.814;18.270;2023-11-21T03:46:57;17.70;;;9.90;;
59093;SDS011;44880;52.814;18.270;2023-11-21T03:49:28;18.30;;;8.70;;
59093;SDS011;44880;52.814;18.270;2023-11-21T03:52:00;15.00;;;8.50;;
59093;SDS011;44880;52.814;18.270;2023-11-21T03:54:33;19.50;;;10.20;;
59093;SDS011;44880;52.814;18.270;2023-11-21T03:57:05;22.80;;;11.80;;
59093;SDS011;44880;52.814;18.270;2023-11-21T03:59:41;20.80;;;10.30;;
59093;SDS011;44880;52.814;18.270;2023-11-21T04:02:12;20.30;;;10.40;;
59093;SDS011;44880;52.814;18.270;2023-11-21T04:04:44;21.30;;;10.20;;
59093;SDS011;44880;52.814;18.270;2023-11-21T04:07:15;17.80;;;9.10;;
59093;SDS011;44880;52.814;18.270;2023-11-21T04:09:47;18.20;;;9.60;;
59093;SDS011;44880;52.814;18.270;2023-11-21T04:12:19;19.70;;;10.00;;
59093;SDS011;44880;52.814;18.270;2023-11-21T04:14:50;21.00;;;11.20;;
59093;SDS011;44880;52.814;18.270;2023-11-21T04:17:22;24.00;;;12.10;;
59093;SDS011;44880;52.814;18.270;2023-11-21T04:19:54;22.20;;;10.90;;
59093;SDS011;44880;52.814;18.270;2023-11-21T04:24:55;24.10;;;11.90;;
59093;SDS011;44880;52.814;18.270;2023-11-21T04:27:27;20.60;;;10.60;;
59093;SDS011;44880;52.814;18.270;2023-11-21T04:29:58;19.00;;;10.00;;
59093;SDS011;44880;52.814;18.270;2023-11-21T04:32:30;21.40;;;10.60;;
59093;SDS011;44880;52.814;18.270;2023-11-21T04:35:02;20.10;;;10.90;;
59093;SDS011;44880;52.814;18.270;2023-11-21T04:37:34;19.30;;;10.20;;
59093;SDS011;44880;52.814;18.270;2023-11-21T04:40:06;19.90;;;10.40;;
59093;SDS011;44880;52.814;18.270;2023-11-21T04:42:39;23.20;;;11.50;;
59093;SDS011;44880;52.814;18.270;2023-11-21T04:45:11;24.60;;;12.50;;
59093;SDS011;44880;52.814;18.270;2023-11-21T04:47:42;22.10;;;10.90;;
59093;SDS011;44880;52.814;18.270;2023-11-21T04:50:14;23.70;;;11.40;;
59093;SDS011;44880;52.814;18.270;2023-11-21T04:52:47;21.90;;;11.40;;
59093;SDS011;44880;52.814;18.270;2023-11-21T04:55:18;20.60;;;10.70;;
59093;SDS011;44880;52.814;18.270;2023-11-21T04:57:50;21.60;;;11.20;;
59093;SDS011;44880;52.814;18.270;2023-11-21T05:00:22;19.30;;;10.30;;
59093;SDS011;44880;52.814;18.270;2023-11-21T05:02:53;19.50;;;10.30;;
59093;SDS011;44880;52.814;18.270;2023-11-21T05:05:25;22.50;;;10.80;;
59093;SDS011;44880;52.814;18.270;2023-11-21T05:07:58;23.70;;;12.10;;
59093;SDS011;44880;52.814;18.270;2023-11-21T05:10:30;26.30;;;12.80;;
59093;SDS011;44880;52.814;18.270;2023-11-21T05:15:32;22.40;;;12.50;;
59093;SDS011;44880;52.814;18.270;2023-11-21T05:18:04;20.80;;;11.20;;
59093;SDS011;44880;52.814;18.270;2023-11-21T05:20:35;20.10;;;11.20;;
59093;SDS011;44880;52.814;18.270;2023-11-21T05:23:07;21.10;;;11.30;;
59093;SDS011;44880;52.814;18.270;2023-11-21T05:25:39;21.60;;;11.40;;
59093;SDS011;44880;52.814;18.270;2023-11-21T05:28:11;23.50;;;12.30;;
59093;SDS011;44880;52.814;18.270;2023-11-21T05:30:42;21.60;;;12.30;;
59093;SDS011;44880;52.814;18.270;2023-11-21T05:33:14;21.30;;;11.60;;
59093;SDS011;44880;52.814;18.270;2023-11-21T05:35:46;18.80;;;10.80;;
59093;SDS011;44880;52.814;18.270;2023-11-21T05:38:17;19.00;;;9.80;;
59093;SDS011;44880;52.814;18.270;2023-11-21T05:40:50;20.00;;;10.60;;
59093;SDS011;44880;52.814;18.270;2023-11-21T05:43:21;18.40;;;10.20;;
59093;SDS011;44880;52.814;18.270;2023-11-21T05:45:53;19.40;;;11.10;;
59093;SDS011;44880;52.814;18.270;2023-11-21T05:48:25;19.60;;;11.10;;
59093;SDS011;44880;52.814;18.270;2023-11-21T05:50:56;21.10;;;12.30;;
59093;SDS011;44880;52.814;18.270;2023-11-21T05:53:30;24.50;;;11.90;;
59093;SDS011;44880;52.814;18.270;2023-11-21T05:56:01;26.50;;;12.90;;
59093;SDS011;44880;52.814;18.270;2023-11-21T05:58:34;22.90;;;13.10;;
59093;SDS011;44880;52.814;18.270;2023-11-21T06:01:06;23.20;;;12.40;;
59093;SDS011;44880;52.814;18.270;2023-11-21T06:03:41;22.10;;;11.60;;
59093;SDS011;44880;52.814;18.270;2023-11-21T06:06:14;22.30;;;12.20;;
59093;SDS011;44880;52.814;18.270;2023-11-21T06:08:47;23.40;;;12.50;;
59093;SDS011;44880;52.814;18.270;2023-11-21T06:11:19;21.60;;;11.80;;
59093;SDS011;44880;52.814;18.270;2023-11-21T06:13:51;25.00;;;13.20;;
59093;SDS011;44880;52.814;18.270;2023-11-21T06:18:52;26.10;;;12.60;;
59093;SDS011;44880;52.814;18.270;2023-11-21T06:21:24;23.60;;;12.20;;
59093;SDS011;44880;52.814;18.270;2023-11-21T06:23:57;24.20;;;12.70;;
59093;SDS011;44880;52.814;18.270;2023-11-21T06:26:29;23.30;;;13.10;;
59093;SDS011;44880;52.814;18.270;2023-11-21T06:29:01;25.90;;;13.50;;
59093;SDS011;44880;52.814;18.270;2023-11-21T06:34:03;23.60;;;13.10;;
59093;SDS011;44880;52.814;18.270;2023-11-21T06:36:35;25.30;;;13.40;;
59093;SDS011;44880;52.814;18.270;2023-11-21T06:39:07;31.80;;;13.60;;
59093;SDS011;44880;52.814;18.270;2023-11-21T06:41:40;25.90;;;13.50;;
59093;SDS011;44880;52.814;18.270;2023-11-21T06:46:41;25.80;;;13.00;;
59093;SDS011;44880;52.814;18.270;2023-11-21T06:49:13;21.70;;;12.10;;
59093;SDS011;44880;52.814;18.270;2023-11-21T06:51:45;24.60;;;13.50;;
59093;SDS011;44880;52.814;18.270;2023-11-21T06:54:17;26.30;;;14.40;;
59093;SDS011;44880;52.814;18.270;2023-11-21T06:56:51;26.40;;;13.40;;
59093;SDS011;44880;52.814;18.270;2023-11-21T06:59:25;26.80;;;14.60;;
59093;SDS011;44880;52.814;18.270;2023-11-21T07:01:56;26.10;;;14.00;;
59093;SDS011;44880;52.814;18.270;2023-11-21T07:04:28;20.70;;;11.60;;
59093;SDS011;44880;52.814;18.270;2023-11-21T07:07:01;26.30;;;13.50;;
59093;SDS011;44880;52.814;18.270;2023-11-21T07:09:35;23.80;;;13.20;;
59093;SDS011;44880;52.814;18.270;2023-11-21T07:12:07;24.30;;;13.10;;
59093;SDS011;44880;52.814;18.270;2023-11-21T07:14:39;27.30;;;13.30;;
59093;SDS011;44880;52.814;18.270;2023-11-21T07:17:13;28.30;;;12.30;;
59093;SDS011;44880;52.814;18.270;2023-11-21T07:19:45;24.70;;;13.50;;
59093;SDS011;44880;52.814;18.270;2023-11-21T07:22:18;24.80;;;13.60;;
59093;SDS011;44880;52.814;18.270;2023-11-21T07:24:50;24.50;;;13.10;;
59093;SDS011;44880;52.814;18.270;2023-11-21T07:27:26;24.00;;;12.00;;
59093;SDS011;44880;52.814;18.270;2023-11-21T07:29:58;21.50;;;11.30;;
59093;SDS011;44880;52.814;18.270;2023-11-21T07:32:32;25.30;;;12.80;;
59093;SDS011;44880;52.814;18.270;2023-11-21T07:35:06;23.40;;;12.30;;
59093;SDS011;44880;52.814;18.270;2023-11-21T07:37:40;22.00;;;11.70;;
59093;SDS011;44880;52.814;18.270;2023-11-21T07:40:13;24.50;;;12.50;;
59093;SDS011;44880;52.814;18.270;2023-11-21T07:42:45;23.30;;;12.00;;
59093;SDS011;44880;52.814;18.270;2023-11-21T07:45:19;26.40;;;12.80;;
59093;SDS011;44880;52.814;18.270;2023-11-21T07:47:51;27.40;;;11.40;;
59093;SDS011;44880;52.814;18.270;2023-11-21T07:50:23;21.10;;;11.50;;
59093;SDS011;44880;52.814;18.270;2023-11-21T07:52:55;22.80;;;11.90;;
59093;SDS011;44880;52.814;18.270;2023-11-21T07:55:26;21.10;;;11.10;;
59093;SDS011;44880;52.814;18.270;2023-11-21T07:58:00;22.10;;;12.00;;
59093;SDS011;44880;52.814;18.270;2023-11-21T08:03:03;27.50;;;13.40;;
59093;SDS011;44880;52.814;18.270;2023-11-21T08:05:36;25.20;;;12.30;;
59093;SDS011;44880;52.814;18.270;2023-11-21T08:08:09;23.80;;;12.80;;
59093;SDS011;44880;52.814;18.270;2023-11-21T08:10:41;23.40;;;12.10;;
59093;SDS011;44880;52.814;18.270;2023-11-21T08:13:24;22.50;;;11.70;;
59093;SDS011;44880;52.814;18.270;2023-11-21T08:15:58;22.30;;;13.00;;
59093;SDS011;44880;52.814;18.270;2023-11-21T08:18:31;25.20;;;12.00;;
59093;SDS011;44880;52.814;18.270;2023-11-21T08:21:04;24.30;;;12.20;;
59093;SDS011;44880;52.814;18.270;2023-11-21T08:23:36;24.90;;;12.60;;
59093;SDS011;44880;52.814;18.270;2023-11-21T08:26:11;22.40;;;12.30;;
59093;SDS011;44880;52.814;18.270;2023-11-21T08:28:42;23.40;;;12.30;;
59093;SDS011;44880;52.814;18.270;2023-11-21T08:31:15;23.70;;;11.60;;
59093;SDS011;44880;52.814;18.270;2023-11-21T08:33:48;24.70;;;12.90;;
59093;SDS011;44880;52.814;18.270;2023-11-21T08:36:32;22.30;;;12.70;;
59093;SDS011;44880;52.814;18.270;2023-11-21T08:39:04;24.10;;;12.40;;
59093;SDS011;44880;52.814;18.270;2023-11-21T08:41:38;23.70;;;11.80;;
59093;SDS011;44880;52.814;18.270;2023-11-21T08:44:21;21.80;;;11.80;;
59093;SDS011;44880;52.814;18.270;2023-11-21T08:46:53;20.70;;;10.60;;
59093;SDS011;44880;52.814;18.270;2023-11-21T08:49:25;20.40;;;11.00;;
59093;SDS011;44880;52.814;18.270;2023-11-21T08:55:08;20.40;;;11.40;;
59093;SDS011;44880;52.814;18.270;2023-11-21T08:57:50;23.10;;;11.80;;
59093;SDS011;44880;52.814;18.270;2023-11-21T09:00:27;22.30;;;11.70;;
59093;SDS011;44880;52.814;18.270;2023-11-21T09:03:00;23.90;;;13.40;;
59093;SDS011;44880;52.814;18.270;2023-11-21T09:05:50;25.90;;;12.60;;
59093;SDS011;44880;52.814;18.270;2023-11-21T09:08:22;22.50;;;11.30;;
59093;SDS011;44880;52.814;18.270;2023-11-21T09:10:55;24.50;;;12.30;;
59093;SDS011;44880;52.814;18.270;2023-11-21T09:13:40;23.30;;;12.80;;
59093;SDS011;44880;52.814;18.270;2023-11-21T09:16:12;25.00;;;13.30;;
59093;SDS011;44880;52.814;18.270;2023-11-21T09:18:45;24.60;;;12.30;;
59093;SDS011;44880;52.814;18.270;2023-11-21T09:24:17;28.40;;;12.80;;
59093;SDS011;44880;52.814;18.270;2023-11-21T09:26:49;26.10;;;12.00;;
59093;SDS011;44880;52.814;18.270;2023-11-21T09:29:31;24.20;;;12.00;;
59093;SDS011;44880;52.814;18.270;2023-11-21T09:32:05;24.90;;;12.70;;
59093;SDS011;44880;52.814;18.270;2023-11-21T09:34:43;28.00;;;14.00;;
59093;SDS011;44880;52.814;18.270;2023-11-21T09:37:23;26.50;;;13.00;;
59093;SDS011;44880;52.814;18.270;2023-11-21T09:39:57;26.40;;;12.90;;
59093;SDS011;44880;52.814;18.270;2023-11-21T09:42:31;26.50;;;11.90;;
59093;SDS011;44880;52.814;18.270;2023-11-21T09:45:08;27.00;;;13.60;;
59093;SDS011;44880;52.814;18.270;2023-11-21T09:47:49;24.50;;;12.00;;
59093;SDS011;44880;52.814;18.270;2023-11-21T09:50:22;24.50;;;12.20;;
59093;SDS011;44880;52.814;18.270;2023-11-21T09:53:09;21.70;;;11.40;;
59093;SDS011;44880;52.814;18.270;2023-11-21T09:56:01;25.20;;;12.80;;
59093;SDS011;44880;52.814;18.270;2023-11-21T09:58:37;24.10;;;12.00;;
59093;SDS011;44880;52.814;18.270;2023-11-21T10:01:18;25.70;;;12.70;;
59093;SDS011;44880;52.814;18.270;2023-11-21T10:03:50;25.40;;;12.60;;
59093;SDS011;44880;52.814;18.270;2023-11-21T10:06:32;29.20;;;13.90;;
59093;SDS011;44880;52.814;18.270;2023-11-21T10:09:11;25.40;;;12.00;;
59093;SDS011;44880;52.814;18.270;2023-11-21T10:11:43;23.10;;;12.00;;
59093;SDS011;44880;52.814;18.270;2023-11-21T10:17:14;25.70;;;12.50;;
59093;SDS011;44880;52.814;18.270;2023-11-21T10:19:50;24.50;;;12.90;;
59093;SDS011;44880;52.814;18.270;2023-11-21T10:22:37;25.60;;;13.30;;
59093;SDS011;44880;52.814;18.270;2023-11-21T10:25:11;26.80;;;12.70;;
59093;SDS011;44880;52.814;18.270;2023-11-21T10:30:38;23.50;;;12.50;;
59093;SDS011;44880;52.814;18.270;2023-11-21T10:33:10;23.40;;;11.70;;
59093;SDS011;44880;52.814;18.270;2023-11-21T10:35:48;22.10;;;10.90;;
59093;SDS011;44880;52.814;18.270;2023-11-21T10:38:28;26.50;;;12.00;;
59093;SDS011;44880;52.814;18.270;2023-11-21T10:47:42;22.80;;;11.60;;
59093;SDS011;44880;52.814;18.270;2023-11-21T10:50:26;23.10;;;11.10;;
59093;SDS011;44880;52.814;18.270;2023-11-21T10:53:13;26.80;;;12.00;;
59093;SDS011;44880;52.814;18.270;2023-11-21T10:55:54;23.40;;;12.20;;
59093;SDS011;44880;52.814;18.270;2023-11-21T10:58:51;23.40;;;12.90;;
59093;SDS011;44880;52.814;18.270;2023-11-21T11:01:28;26.40;;;13.10;;
59093;SDS011;44880;52.814;18.270;2023-11-21T11:08:16;26.20;;;12.50;;
59093;SDS011;44880;52.814;18.270;2023-11-21T11:11:06;22.60;;;11.30;;
59093;SDS011;44880;52.814;18.270;2023-11-21T11:13:39;24.20;;;11.40;;
59093;SDS011;44880;52.814;18.270;2023-11-21T11:16:29;22.00;;;10.80;;
59093;SDS011;44880;52.814;18.270;2023-11-21T11:19:01;22.80;;;11.60;;
59093;SDS011;44880;52.814;18.270;2023-11-21T11:21:36;23.50;;;11.50;;
59093;SDS011;44880;52.814;18.270;2023-11-21T11:28:03;23.70;;;11.60;;
59093;SDS011;44880;52.814;18.270;2023-11-21T11:30:41;23.00;;;12.10;;
59093;SDS011;44880;52.814;18.270;2023-11-21T11:33:46;24.10;;;12.60;;
59093;SDS011;44880;52.814;18.270;2023-11-21T11:36:29;23.50;;;12.00;;
59093;SDS011;44880;52.814;18.270;2023-11-21T11:39:46;22.00;;;11.70;;
59093;SDS011;44880;52.814;18.270;2023-11-21T11:42:37;22.10;;;11.20;;
59093;SDS011;44880;52.814;18.270;2023-11-21T11:45:18;24.60;;;11.40;;
59093;SDS011;44880;52.814;18.270;2023-11-21T11:48:07;25.80;;;13.00;;
59093;SDS011;44880;52.814;18.270;2023-11-21T11:50:43;25.10;;;12.00;;
59093;SDS011;44880;52.814;18.270;2023-11-21T11:54:12;22.80;;;11.70;;
59093;SDS011;44880;52.814;18.270;2023-11-21T12:03:15;20.30;;;11.10;;
59093;SDS011;44880;52.814;18.270;2023-11-21T12:05:54;21.40;;;10.80;;
59093;SDS011;44880;52.814;18.270;2023-11-21T12:08:31;23.10;;;11.90;;
59093;SDS011;44880;52.814;18.270;2023-11-21T12:11:05;26.10;;;12.10;;
59093;SDS011;44880;52.814;18.270;2023-11-21T12:13:56;21.90;;;11.70;;
59093;SDS011;44880;52.814;18.270;2023-11-21T12:16:28;21.70;;;11.10;;
59093;SDS011;44880;52.814;18.270;2023-11-21T12:19:12;23.30;;;11.40;;
59093;SDS011;44880;52.814;18.270;2023-11-21T12:22:04;21.60;;;10.90;;
59093;SDS011;44880;52.814;18.270;2023-11-21T12:27:06;24.40;;;12.50;;
59093;SDS011;44880;52.814;18.270;2023-11-21T12:29:59;23.50;;;12.30;;
59093;SDS011;44880;52.814;18.270;2023-11-21T12:35:06;24.20;;;12.80;;
59093;SDS011;44880;52.814;18.270;2023-11-21T12:37:53;22.00;;;12.60;;
59093;SDS011;44880;52.814;18.270;2023-11-21T12:40:29;25.50;;;12.80;;
59093;SDS011;44880;52.814;18.270;2023-11-21T12:43:20;23.50;;;12.00;;
59093;SDS011;44880;52.814;18.270;2023-11-21T12:45:52;23.20;;;12.70;;
59093;SDS011;44880;52.814;18.270;2023-11-21T12:49:05;21.20;;;11.40;;
59093;SDS011;44880;52.814;18.270;2023-11-21T12:51:41;23.20;;;12.30;;
59093;SDS011;44880;52.814;18.270;2023-11-21T12:54:32;23.80;;;11.50;;
59093;SDS011;44880;52.814;18.270;2023-11-21T12:57:06;20.20;;;10.90;;
59093;SDS011;44880;52.814;18.270;2023-11-21T12:59:47;21.90;;;12.30;;
59093;SDS011;44880;52.814;18.270;2023-11-21T13:02:44;24.60;;;12.20;;
59093;SDS011;44880;52.814;18.270;2023-11-21T13:05:24;23.60;;;12.50;;
59093;SDS011;44880;52.814;18.270;2023-11-21T13:08:13;21.90;;;11.40;;
59093;SDS011;44880;52.814;18.270;2023-11-21T13:10:49;24.70;;;12.30;;
59093;SDS011;44880;52.814;18.270;2023-11-21T13:16:13;21.80;;;11.50;;
59093;SDS011;44880;52.814;18.270;2023-11-21T13:18:45;19.70;;;10.70;;
59093;SDS011;44880;52.814;18.270;2023-11-21T13:21:34;21.90;;;12.00;;
59093;SDS011;44880;52.814;18.270;2023-11-21T13:24:08;24.90;;;12.40;;
59093;SDS011;44880;52.814;18.270;2023-11-21T13:26:47;22.70;;;10.60;;
59093;SDS011;44880;52.814;18.270;2023-11-21T13:29:41;24.60;;;12.10;;
59093;SDS011;44880;52.814;18.270;2023-11-21T13:32:14;23.40;;;12.00;;
59093;SDS011;44880;52.814;18.270;2023-11-21T13:35:08;23.60;;;11.80;;
59093;SDS011;44880;52.814;18.270;2023-11-21T13:37:51;19.80;;;11.00;;
59093;SDS011;44880;52.814;18.270;2023-11-21T13:43:24;25.00;;;11.90;;
59093;SDS011;44880;52.814;18.270;2023-11-21T13:48:56;21.50;;;11.40;;
59093;SDS011;44880;52.814;18.270;2023-11-21T13:54:58;19.00;;;10.40;;
59093;SDS011;44880;52.814;18.270;2023-11-21T13:57:56;21.70;;;9.70;;
59093;SDS011;44880;52.814;18.270;2023-11-21T14:03:32;18.90;;;10.30;;
59093;SDS011;44880;52.814;18.270;2023-11-21T14:06:26;21.60;;;11.70;;
59093;SDS011;44880;52.814;18.270;2023-11-21T14:09:16;25.60;;;14.10;;
59093;SDS011;44880;52.814;18.270;2023-11-21T14:11:53;24.60;;;11.70;;
59093;SDS011;44880;52.814;18.270;2023-11-21T14:14:26;25.60;;;11.80;;
59093;SDS011;44880;52.814;18.270;2023-11-21T14:16:58;22.80;;;11.40;;
59093;SDS011;44880;52.814;18.270;2023-11-21T14:19:35;19.20;;;10.90;;
59093;SDS011;44880;52.814;18.270;2023-11-21T14:22:10;22.90;;;11.20;;
59093;SDS011;44880;52.814;18.270;2023-11-21T14:24:42;22.10;;;11.20;;
59093;SDS011;44880;52.814;18.270;2023-11-21T14:27:19;21.00;;;10.80;;
59093;SDS011;44880;52.814;18.270;2023-11-21T14:29:50;19.50;;;9.80;;
59093;SDS011;44880;52.814;18.270;2023-11-21T14:32:25;20.10;;;9.90;;
59093;SDS011;44880;52.814;18.270;2023-11-21T14:34:57;19.80;;;10.50;;
59093;SDS011;44880;52.814;18.270;2023-11-21T14:37:29;22.20;;;10.40;;
59093;SDS011;44880;52.814;18.270;2023-11-21T14:40:00;20.10;;;10.80;;
59093;SDS011;44880;52.814;18.270;2023-11-21T14:42:36;19.70;;;10.10;;
59093;SDS011;44880;52.814;18.270;2023-11-21T14:45:10;19.80;;;9.60;;
59093;SDS011;44880;52.814;18.270;2023-11-21T14:47:44;19.20;;;9.40;;
59093;SDS011;44880;52.814;18.270;2023-11-21T14:50:24;18.20;;;9.30;;
59093;SDS011;44880;52.814;18.270;2023-11-21T14:53:16;16.00;;;8.80;;
59093;SDS011;44880;52.814;18.270;2023-11-21T14:56:09;20.40;;;10.70;;
59093;SDS011;44880;52.814;18.270;2023-11-21T14:58:49;19.40;;;9.50;;
59093;SDS011;44880;52.814;18.270;2023-11-21T15:01:21;15.30;;;8.20;;
59093;SDS011;44880;52.814;18.270;2023-11-21T15:04:11;17.80;;;9.20;;
59093;SDS011;44880;52.814;18.270;2023-11-21T15:06:55;17.80;;;8.80;;
59093;SDS011;44880;52.814;18.270;2023-11-21T15:09:28;17.30;;;8.50;;
59093;SDS011;44880;52.814;18.270;2023-11-21T15:12:08;15.30;;;8.00;;
59093;SDS011;44880;52.814;18.270;2023-11-21T15:14:44;16.60;;;6.90;;
59093;SDS011;44880;52.814;18.270;2023-11-21T15:17:20;16.10;;;7.70;;
59093;SDS011;44880;52.814;18.270;2023-11-21T15:19:54;15.20;;;6.90;;
59093;SDS011;44880;52.814;18.270;2023-11-21T15:22:26;15.30;;;7.60;;
59093;SDS011;44880;52.814;18.270;2023-11-21T15:24:58;15.30;;;7.70;;
59093;SDS011;44880;52.814;18.270;2023-11-21T15:27:36;14.90;;;6.80;;
59093;SDS011;44880;52.814;18.270;2023-11-21T15:30:09;13.90;;;7.10;;
59093;SDS011;44880;52.814;18.270;2023-11-21T15:32:41;16.90;;;7.80;;
59093;SDS011;44880;52.814;18.270;2023-11-21T15:35:13;14.10;;;6.50;;
59093;SDS011;44880;52.814;18.270;2023-11-21T15:37:45;12.50;;;6.30;;
59093;SDS011;44880;52.814;18.270;2023-11-21T15:40:17;13.30;;;5.90;;
59093;SDS011;44880;52.814;18.270;2023-11-21T15:42:49;13.80;;;6.80;;
59093;SDS011;44880;52.814;18.270;2023-11-21T15:45:20;12.30;;;6.00;;
59093;SDS011;44880;52.814;18.270;2023-11-21T15:47:54;14.10;;;6.70;;
59093;SDS011;44880;52.814;18.270;2023-11-21T15:50:26;14.10;;;6.60;;
59093;SDS011;44880;52.814;18.270;2023-11-21T15:53:00;14.00;;;6.20;;
59093;SDS011;44880;52.814;18.270;2023-11-21T15:55:33;12.70;;;5.80;;
59093;SDS011;44880;52.814;18.270;2023-11-21T15:58:10;14.90;;;6.00;;
59093;SDS011;44880;52.814;18.270;2023-11-21T16:03:12;14.80;;;6.30;;
59093;SDS011;44880;52.814;18.270;2023-11-21T16:05:44;14.60;;;6.10;;
59093;SDS011;44880;52.814;18.270;2023-11-21T16:08:16;14.30;;;6.30;;
59093;SDS011;44880;52.814;18.270;2023-11-21T16:10:49;13.90;;;6.10;;
59093;SDS011;44880;52.814;18.270;2023-11-21T16:13:21;14.70;;;6.30;;
59093;SDS011;44880;52.814;18.270;2023-11-21T16:15:52;14.80;;;6.80;;
59093;SDS011;44880;52.814;18.270;2023-11-21T16:18:24;14.70;;;6.50;;
59093;SDS011;44880;52.814;18.270;2023-11-21T16:23:26;14.00;;;6.70;;
59093;SDS011;44880;52.814;18.270;2023-11-21T16:26:00;14.50;;;7.10;;